sensor_id;sensor_type;location;lat;lon;timestamp;P1;durP1;ratioP1;P2;durP2;ratioP2
3771;SDS011;1901;48.172;12.824;2022-08-19T00:01:16;7.80;;;6.90;;
3771;SDS011;1901;48.172;12.824;2022-08-19T00:03:44;10.07;;;8.13;;
3771;SDS011;1901;48.172;12.824;2022-08-19T00:06:11;9.40;;;8.43;;
3771;SDS011;1901;48.172;12.824;2022-08-19T00:08:38;9.73;;;8.73;;
3771;SDS011;1901;48.172;12.824;2022-08-19T00:11:06;9.87;;;8.97;;
3771;SDS011;1901;48.172;12.824;2022-08-19T00:13:33;9.77;;;8.70;;
3771;SDS011;1901;48.172;12.824;2022-08-19T00:16:00;10.33;;;7.80;;
3771;SDS011;1901;48.172;12.824;2022-08-19T00:18:29;11.83;;;8.80;;
3771;SDS011;1901;48.172;12.824;2022-08-19T00:20:56;10.30;;;9.17;;
3771;SDS011;1901;48.172;12.824;2022-08-19T00:23:24;12.20;;;9.83;;
3771;SDS011;1901;48.172;12.824;2022-08-19T00:25:51;11.17;;;9.77;;
3771;SDS011;1901;48.172;12.824;2022-08-19T00:28:18;9.50;;;8.43;;
3771;SDS011;1901;48.172;12.824;2022-08-19T00:30:46;10.93;;;8.60;;
3771;SDS011;1901;48.172;12.824;2022-08-19T00:33:13;10.40;;;9.40;;
3771;SDS011;1901;48.172;12.824;2022-08-19T00:35:42;11.70;;;9.63;;
3771;SDS011;1901;48.172;12.824;2022-08-19T00:38:10;12.20;;;10.00;;
3771;SDS011;1901;48.172;12.824;2022-08-19T00:40:37;14.73;;;10.30;;
3771;SDS011;1901;48.172;12.824;2022-08-19T00:43:07;13.87;;;9.63;;
3771;SDS011;1901;48.172;12.824;2022-08-19T00:45:34;13.23;;;9.93;;
3771;SDS011;1901;48.172;12.824;2022-08-19T00:48:02;12.83;;;11.53;;
3771;SDS011;1901;48.172;12.824;2022-08-19T00:50:29;13.03;;;10.60;;
3771;SDS011;1901;48.172;12.824;2022-08-19T00:52:58;16.00;;;11.60;;
3771;SDS011;1901;48.172;12.824;2022-08-19T00:55:29;14.90;;;10.70;;
3771;SDS011;1901;48.172;12.824;2022-08-19T00:57:59;13.67;;;11.10;;
3771;SDS011;1901;48.172;12.824;2022-08-19T01:00:28;14.87;;;11.13;;
3771;SDS011;1901;48.172;12.824;2022-08-19T01:02:55;11.93;;;10.37;;
3771;SDS011;1901;48.172;12.824;2022-08-19T01:05:24;11.17;;;9.97;;
3771;SDS011;1901;48.172;12.824;2022-08-19T01:07:53;11.23;;;10.03;;
3771;SDS011;1901;48.172;12.824;2022-08-19T01:10:23;12.97;;;10.07;;
3771;SDS011;1901;48.172;12.824;2022-08-19T01:12:51;10.63;;;9.60;;
3771;SDS011;1901;48.172;12.824;2022-08-19T01:15:20;11.10;;;9.87;;
3771;SDS011;1901;48.172;12.824;2022-08-19T01:17:48;11.53;;;10.33;;
3771;SDS011;1901;48.172;12.824;2022-08-19T01:20:16;12.20;;;10.70;;
3771;SDS011;1901;48.172;12.824;2022-08-19T01:22:47;11.03;;;9.87;;
3771;SDS011;1901;48.172;12.824;2022-08-19T01:25:15;11.93;;;10.67;;
3771;SDS011;1901;48.172;12.824;2022-08-19T01:27:43;12.27;;;10.93;;
3771;SDS011;1901;48.172;12.824;2022-08-19T01:30:13;10.07;;;9.07;;
3771;SDS011;1901;48.172;12.824;2022-08-19T01:32:40;10.73;;;9.60;;
3771;SDS011;1901;48.172;12.824;2022-08-19T01:35:09;12.20;;;11.00;;
3771;SDS011;1901;48.172;12.824;2022-08-19T01:37:43;11.80;;;9.60;;
3771;SDS011;1901;48.172;12.824;2022-08-19T01:40:12;13.33;;;11.73;;
3771;SDS011;1901;48.172;12.824;2022-08-19T01:42:39;15.43;;;9.90;;
3771;SDS011;1901;48.172;12.824;2022-08-19T01:45:07;10.50;;;9.50;;
3771;SDS011;1901;48.172;12.824;2022-08-19T01:47:34;10.10;;;8.60;;
3771;SDS011;1901;48.172;12.824;2022-08-19T01:50:02;10.13;;;9.00;;
3771;SDS011;1901;48.172;12.824;2022-08-19T01:52:29;11.47;;;10.10;;
3771;SDS011;1901;48.172;12.824;2022-08-19T01:54:56;10.50;;;9.40;;
3771;SDS011;1901;48.172;12.824;2022-08-19T01:57:25;13.73;;;9.30;;
3771;SDS011;1901;48.172;12.824;2022-08-19T01:59:52;11.00;;;9.10;;
3771;SDS011;1901;48.172;12.824;2022-08-19T02:02:19;11.77;;;10.30;;
3771;SDS011;1901;48.172;12.824;2022-08-19T02:04:46;11.10;;;9.60;;
3771;SDS011;1901;48.172;12.824;2022-08-19T02:07:13;10.73;;;9.37;;
3771;SDS011;1901;48.172;12.824;2022-08-19T02:09:41;12.07;;;10.67;;
3771;SDS011;1901;48.172;12.824;2022-08-19T02:12:08;11.10;;;9.90;;
3771;SDS011;1901;48.172;12.824;2022-08-19T02:14:36;11.10;;;9.97;;
3771;SDS011;1901;48.172;12.824;2022-08-19T02:17:03;11.73;;;9.47;;
3771;SDS011;1901;48.172;12.824;2022-08-19T02:19:31;9.90;;;8.87;;
3771;SDS011;1901;48.172;12.824;2022-08-19T02:21:58;10.37;;;9.37;;
3771;SDS011;1901;48.172;12.824;2022-08-19T02:24:25;12.40;;;10.07;;
3771;SDS011;1901;48.172;12.824;2022-08-19T02:26:53;10.67;;;9.10;;
3771;SDS011;1901;48.172;12.824;2022-08-19T02:29:20;10.10;;;9.10;;
3771;SDS011;1901;48.172;12.824;2022-08-19T02:31:48;8.90;;;8.03;;
3771;SDS011;1901;48.172;12.824;2022-08-19T02:34:16;8.70;;;7.80;;
3771;SDS011;1901;48.172;12.824;2022-08-19T02:36:44;11.00;;;9.50;;
3771;SDS011;1901;48.172;12.824;2022-08-19T02:39:11;9.50;;;8.50;;
3771;SDS011;1901;48.172;12.824;2022-08-19T02:41:37;9.17;;;8.00;;
3771;SDS011;1901;48.172;12.824;2022-08-19T02:44:04;11.83;;;9.40;;
3771;SDS011;1901;48.172;12.824;2022-08-19T02:46:32;10.30;;;9.30;;
3771;SDS011;1901;48.172;12.824;2022-08-19T02:49:01;9.47;;;8.60;;
3771;SDS011;1901;48.172;12.824;2022-08-19T02:51:30;9.63;;;7.80;;
3771;SDS011;1901;48.172;12.824;2022-08-19T02:53:58;12.20;;;8.70;;
3771;SDS011;1901;48.172;12.824;2022-08-19T02:56:26;10.10;;;9.00;;
3771;SDS011;1901;48.172;12.824;2022-08-19T02:58:53;10.13;;;9.13;;
3771;SDS011;1901;48.172;12.824;2022-08-19T03:01:21;9.30;;;8.30;;
3771;SDS011;1901;48.172;12.824;2022-08-19T03:03:49;9.67;;;8.23;;
3771;SDS011;1901;48.172;12.824;2022-08-19T03:06:17;10.10;;;8.83;;
3771;SDS011;1901;48.172;12.824;2022-08-19T03:08:45;8.70;;;7.80;;
3771;SDS011;1901;48.172;12.824;2022-08-19T03:11:14;9.63;;;8.53;;
3771;SDS011;1901;48.172;12.824;2022-08-19T03:13:42;8.97;;;8.07;;
3771;SDS011;1901;48.172;12.824;2022-08-19T03:16:10;8.70;;;7.80;;
3771;SDS011;1901;48.172;12.824;2022-08-19T03:18:37;9.43;;;8.20;;
3771;SDS011;1901;48.172;12.824;2022-08-19T03:21:06;10.23;;;9.23;;
3771;SDS011;1901;48.172;12.824;2022-08-19T03:23:35;11.60;;;9.33;;
3771;SDS011;1901;48.172;12.824;2022-08-19T03:26:03;14.40;;;9.47;;
3771;SDS011;1901;48.172;12.824;2022-08-19T03:28:30;9.97;;;8.90;;
3771;SDS011;1901;48.172;12.824;2022-08-19T03:31:00;8.93;;;7.80;;
3771;SDS011;1901;48.172;12.824;2022-08-19T03:33:27;10.03;;;9.03;;
3771;SDS011;1901;48.172;12.824;2022-08-19T03:36:05;9.20;;;7.67;;
3771;SDS011;1901;48.172;12.824;2022-08-19T03:38:32;9.47;;;8.07;;
3771;SDS011;1901;48.172;12.824;2022-08-19T03:41:03;9.70;;;7.80;;
3771;SDS011;1901;48.172;12.824;2022-08-19T03:43:31;9.50;;;7.80;;
3771;SDS011;1901;48.172;12.824;2022-08-19T03:46:00;8.67;;;7.77;;
3771;SDS011;1901;48.172;12.824;2022-08-19T03:48:27;8.13;;;7.33;;
3771;SDS011;1901;48.172;12.824;2022-08-19T03:50:55;7.67;;;6.87;;
3771;SDS011;1901;48.172;12.824;2022-08-19T03:53:23;8.13;;;7.33;;
3771;SDS011;1901;48.172;12.824;2022-08-19T03:55:51;8.43;;;7.73;;
3771;SDS011;1901;48.172;12.824;2022-08-19T03:58:20;7.93;;;7.13;;
3771;SDS011;1901;48.172;12.824;2022-08-19T04:00:47;7.97;;;7.17;;
3771;SDS011;1901;48.172;12.824;2022-08-19T04:03:15;8.33;;;7.50;;
3771;SDS011;1901;48.172;12.824;2022-08-19T04:05:43;8.23;;;7.43;;
3771;SDS011;1901;48.172;12.824;2022-08-19T04:08:10;8.17;;;7.47;;
3771;SDS011;1901;48.172;12.824;2022-08-19T04:10:38;7.80;;;7.07;;
3771;SDS011;1901;48.172;12.824;2022-08-19T04:13:05;7.47;;;6.87;;
3771;SDS011;1901;48.172;12.824;2022-08-19T04:15:38;7.50;;;6.40;;
3771;SDS011;1901;48.172;12.824;2022-08-19T04:18:06;7.87;;;7.10;;
3771;SDS011;1901;48.172;12.824;2022-08-19T04:20:37;8.47;;;7.60;;
3771;SDS011;1901;48.172;12.824;2022-08-19T04:23:04;8.70;;;7.60;;
3771;SDS011;1901;48.172;12.824;2022-08-19T04:25:34;7.43;;;6.73;;
3771;SDS011;1901;48.172;12.824;2022-08-19T04:28:01;7.53;;;6.37;;
3771;SDS011;1901;48.172;12.824;2022-08-19T04:30:29;7.53;;;6.83;;
3771;SDS011;1901;48.172;12.824;2022-08-19T04:32:57;8.13;;;7.33;;
3771;SDS011;1901;48.172;12.824;2022-08-19T04:35:24;7.87;;;7.07;;
3771;SDS011;1901;48.172;12.824;2022-08-19T04:37:51;8.47;;;7.67;;
3771;SDS011;1901;48.172;12.824;2022-08-19T04:40:18;7.60;;;6.90;;
3771;SDS011;1901;48.172;12.824;2022-08-19T04:43:03;7.83;;;7.00;;
3771;SDS011;1901;48.172;12.824;2022-08-19T04:45:30;7.10;;;6.50;;
3771;SDS011;1901;48.172;12.824;2022-08-19T04:47:59;7.27;;;5.90;;
3771;SDS011;1901;48.172;12.824;2022-08-19T04:50:26;6.73;;;6.00;;
3771;SDS011;1901;48.172;12.824;2022-08-19T04:52:53;8.03;;;7.23;;
3771;SDS011;1901;48.172;12.824;2022-08-19T04:55:21;6.27;;;5.70;;
3771;SDS011;1901;48.172;12.824;2022-08-19T04:57:50;6.97;;;6.27;;
3771;SDS011;1901;48.172;12.824;2022-08-19T05:00:17;7.90;;;7.10;;
3771;SDS011;1901;48.172;12.824;2022-08-19T05:02:44;6.57;;;5.97;;
3771;SDS011;1901;48.172;12.824;2022-08-19T05:05:13;9.77;;;7.00;;
3771;SDS011;1901;48.172;12.824;2022-08-19T05:07:40;10.57;;;7.30;;
3771;SDS011;1901;48.172;12.824;2022-08-19T05:10:07;6.70;;;6.10;;
3771;SDS011;1901;48.172;12.824;2022-08-19T05:12:34;7.43;;;6.70;;
3771;SDS011;1901;48.172;12.824;2022-08-19T05:15:02;7.27;;;6.67;;
3771;SDS011;1901;48.172;12.824;2022-08-19T05:17:29;6.70;;;6.10;;
3771;SDS011;1901;48.172;12.824;2022-08-19T05:19:56;6.90;;;6.20;;
3771;SDS011;1901;48.172;12.824;2022-08-19T05:22:43;8.00;;;7.20;;
3771;SDS011;1901;48.172;12.824;2022-08-19T05:25:12;9.50;;;7.43;;
3771;SDS011;1901;48.172;12.824;2022-08-19T05:27:40;7.57;;;6.70;;
3771;SDS011;1901;48.172;12.824;2022-08-19T05:30:08;8.67;;;7.00;;
3771;SDS011;1901;48.172;12.824;2022-08-19T05:32:35;8.07;;;6.93;;
3771;SDS011;1901;48.172;12.824;2022-08-19T05:35:02;7.80;;;6.83;;
3771;SDS011;1901;48.172;12.824;2022-08-19T05:37:29;13.20;;;7.10;;
3771;SDS011;1901;48.172;12.824;2022-08-19T05:39:58;10.07;;;9.03;;
3771;SDS011;1901;48.172;12.824;2022-08-19T05:42:25;9.67;;;7.30;;
3771;SDS011;1901;48.172;12.824;2022-08-19T05:44:52;7.83;;;7.10;;
3771;SDS011;1901;48.172;12.824;2022-08-19T05:47:21;9.70;;;7.77;;
3771;SDS011;1901;48.172;12.824;2022-08-19T05:49:48;9.33;;;8.43;;
3771;SDS011;1901;48.172;12.824;2022-08-19T05:52:16;7.30;;;6.60;;
3771;SDS011;1901;48.172;12.824;2022-08-19T05:54:43;9.53;;;7.97;;
3771;SDS011;1901;48.172;12.824;2022-08-19T05:57:14;8.47;;;6.97;;
3771;SDS011;1901;48.172;12.824;2022-08-19T05:59:41;8.13;;;7.37;;
3771;SDS011;1901;48.172;12.824;2022-08-19T06:02:10;9.37;;;8.47;;
3771;SDS011;1901;48.172;12.824;2022-08-19T06:04:38;7.87;;;6.87;;
3771;SDS011;1901;48.172;12.824;2022-08-19T06:07:07;8.17;;;6.70;;
3771;SDS011;1901;48.172;12.824;2022-08-19T06:09:34;9.20;;;6.70;;
3771;SDS011;1901;48.172;12.824;2022-08-19T06:12:02;9.17;;;8.27;;
3771;SDS011;1901;48.172;12.824;2022-08-19T06:14:32;9.40;;;7.33;;
3771;SDS011;1901;48.172;12.824;2022-08-19T06:17:00;8.07;;;7.07;;
3771;SDS011;1901;48.172;12.824;2022-08-19T06:19:28;7.03;;;6.33;;
3771;SDS011;1901;48.172;12.824;2022-08-19T06:21:56;8.63;;;6.87;;
3771;SDS011;1901;48.172;12.824;2022-08-19T06:24:24;7.33;;;6.63;;
3771;SDS011;1901;48.172;12.824;2022-08-19T06:26:52;7.17;;;6.50;;
3771;SDS011;1901;48.172;12.824;2022-08-19T06:29:20;7.20;;;6.50;;
3771;SDS011;1901;48.172;12.824;2022-08-19T06:31:49;7.03;;;6.30;;
3771;SDS011;1901;48.172;12.824;2022-08-19T06:34:17;7.73;;;6.70;;
3771;SDS011;1901;48.172;12.824;2022-08-19T06:36:45;7.57;;;5.90;;
3771;SDS011;1901;48.172;12.824;2022-08-19T06:39:13;5.90;;;5.17;;
3771;SDS011;1901;48.172;12.824;2022-08-19T06:41:42;7.03;;;6.43;;
3771;SDS011;1901;48.172;12.824;2022-08-19T06:44:10;10.47;;;7.30;;
3771;SDS011;1901;48.172;12.824;2022-08-19T06:46:38;8.50;;;7.63;;
3771;SDS011;1901;48.172;12.824;2022-08-19T06:49:07;6.50;;;5.90;;
3771;SDS011;1901;48.172;12.824;2022-08-19T06:51:36;7.60;;;6.23;;
3771;SDS011;1901;48.172;12.824;2022-08-19T06:54:04;10.03;;;6.50;;
3771;SDS011;1901;48.172;12.824;2022-08-19T06:56:31;6.53;;;5.93;;
3771;SDS011;1901;48.172;12.824;2022-08-19T06:58:59;6.50;;;5.73;;
3771;SDS011;1901;48.172;12.824;2022-08-19T07:01:26;6.27;;;5.67;;
3771;SDS011;1901;48.172;12.824;2022-08-19T07:03:54;8.33;;;5.70;;
3771;SDS011;1901;48.172;12.824;2022-08-19T07:06:22;5.53;;;5.03;;
3771;SDS011;1901;48.172;12.824;2022-08-19T07:08:50;7.03;;;6.37;;
3771;SDS011;1901;48.172;12.824;2022-08-19T07:11:17;6.10;;;5.50;;
3771;SDS011;1901;48.172;12.824;2022-08-19T07:13:45;5.90;;;5.30;;
3771;SDS011;1901;48.172;12.824;2022-08-19T07:16:14;8.50;;;6.90;;
3771;SDS011;1901;48.172;12.824;2022-08-19T07:18:42;5.67;;;5.13;;
3771;SDS011;1901;48.172;12.824;2022-08-19T07:21:10;7.30;;;6.40;;
3771;SDS011;1901;48.172;12.824;2022-08-19T07:23:38;6.87;;;6.13;;
3771;SDS011;1901;48.172;12.824;2022-08-19T07:26:06;6.73;;;6.03;;
3771;SDS011;1901;48.172;12.824;2022-08-19T07:28:33;9.30;;;5.43;;
3771;SDS011;1901;48.172;12.824;2022-08-19T07:31:04;6.90;;;5.60;;
3771;SDS011;1901;48.172;12.824;2022-08-19T07:33:31;6.27;;;5.67;;
3771;SDS011;1901;48.172;12.824;2022-08-19T07:35:59;5.27;;;4.77;;
3771;SDS011;1901;48.172;12.824;2022-08-19T07:38:26;5.70;;;4.97;;
3771;SDS011;1901;48.172;12.824;2022-08-19T07:40:54;6.33;;;5.73;;
3771;SDS011;1901;48.172;12.824;2022-08-19T07:43:21;6.77;;;6.00;;
3771;SDS011;1901;48.172;12.824;2022-08-19T07:45:50;6.27;;;5.67;;
3771;SDS011;1901;48.172;12.824;2022-08-19T07:48:17;7.53;;;6.83;;
3771;SDS011;1901;48.172;12.824;2022-08-19T07:50:44;7.17;;;6.47;;
3771;SDS011;1901;48.172;12.824;2022-08-19T07:53:13;7.13;;;6.07;;
3771;SDS011;1901;48.172;12.824;2022-08-19T07:55:40;7.27;;;6.60;;
3771;SDS011;1901;48.172;12.824;2022-08-19T07:58:09;6.43;;;5.80;;
3771;SDS011;1901;48.172;12.824;2022-08-19T08:00:37;7.63;;;6.93;;
3771;SDS011;1901;48.172;12.824;2022-08-19T08:03:04;7.40;;;6.77;;
3771;SDS011;1901;48.172;12.824;2022-08-19T08:05:33;7.10;;;6.40;;
3771;SDS011;1901;48.172;12.824;2022-08-19T08:08:18;8.40;;;7.50;;
3771;SDS011;1901;48.172;12.824;2022-08-19T08:11:03;9.07;;;8.17;;
3771;SDS011;1901;48.172;12.824;2022-08-19T08:13:31;10.00;;;7.53;;
3771;SDS011;1901;48.172;12.824;2022-08-19T08:16:00;8.43;;;7.03;;
3771;SDS011;1901;48.172;12.824;2022-08-19T08:18:27;12.43;;;7.60;;
3771;SDS011;1901;48.172;12.824;2022-08-19T08:20:55;9.60;;;8.57;;
3771;SDS011;1901;48.172;12.824;2022-08-19T08:23:23;9.17;;;7.97;;
3771;SDS011;1901;48.172;12.824;2022-08-19T08:25:51;9.77;;;8.63;;
3771;SDS011;1901;48.172;12.824;2022-08-19T08:28:19;8.10;;;6.83;;
3771;SDS011;1901;48.172;12.824;2022-08-19T08:30:48;8.00;;;7.20;;
3771;SDS011;1901;48.172;12.824;2022-08-19T08:33:17;8.33;;;7.53;;
3771;SDS011;1901;48.172;12.824;2022-08-19T08:35:45;9.30;;;8.40;;
3771;SDS011;1901;48.172;12.824;2022-08-19T08:38:12;11.20;;;9.43;;
3771;SDS011;1901;48.172;12.824;2022-08-19T08:40:43;9.50;;;8.10;;
3771;SDS011;1901;48.172;12.824;2022-08-19T08:43:14;9.13;;;8.17;;
3771;SDS011;1901;48.172;12.824;2022-08-19T08:45:49;8.73;;;7.70;;
3771;SDS011;1901;48.172;12.824;2022-08-19T08:48:20;11.10;;;9.87;;
3771;SDS011;1901;48.172;12.824;2022-08-19T08:50:47;10.70;;;9.20;;
3771;SDS011;1901;48.172;12.824;2022-08-19T08:53:17;19.73;;;9.23;;
3771;SDS011;1901;48.172;12.824;2022-08-19T08:55:45;9.33;;;8.33;;
3771;SDS011;1901;48.172;12.824;2022-08-19T08:58:14;11.50;;;8.10;;
3771;SDS011;1901;48.172;12.824;2022-08-19T09:00:45;9.23;;;8.33;;
3771;SDS011;1901;48.172;12.824;2022-08-19T09:03:16;10.23;;;9.20;;
3771;SDS011;1901;48.172;12.824;2022-08-19T09:05:45;10.60;;;7.53;;
3771;SDS011;1901;48.172;12.824;2022-08-19T09:08:17;7.87;;;7.17;;
3771;SDS011;1901;48.172;12.824;2022-08-19T09:10:46;8.30;;;7.47;;
3771;SDS011;1901;48.172;12.824;2022-08-19T09:13:17;9.70;;;8.80;;
3771;SDS011;1901;48.172;12.824;2022-08-19T09:15:48;8.33;;;7.53;;
3771;SDS011;1901;48.172;12.824;2022-08-19T09:18:19;9.30;;;8.47;;
3771;SDS011;1901;48.172;12.824;2022-08-19T09:20:46;10.67;;;9.57;;
3771;SDS011;1901;48.172;12.824;2022-08-19T09:23:13;9.80;;;8.83;;
3771;SDS011;1901;48.172;12.824;2022-08-19T09:25:40;11.23;;;9.80;;
3771;SDS011;1901;48.172;12.824;2022-08-19T09:28:08;11.90;;;10.60;;
3771;SDS011;1901;48.172;12.824;2022-08-19T09:30:38;9.40;;;8.50;;
3771;SDS011;1901;48.172;12.824;2022-08-19T09:33:05;9.67;;;8.77;;
3771;SDS011;1901;48.172;12.824;2022-08-19T09:35:34;13.00;;;10.80;;
3771;SDS011;1901;48.172;12.824;2022-08-19T09:38:01;13.47;;;12.17;;
3771;SDS011;1901;48.172;12.824;2022-08-19T09:40:29;8.33;;;7.53;;
3771;SDS011;1901;48.172;12.824;2022-08-19T09:42:56;8.03;;;7.33;;
3771;SDS011;1901;48.172;12.824;2022-08-19T09:45:27;11.60;;;8.63;;
3771;SDS011;1901;48.172;12.824;2022-08-19T09:47:54;9.63;;;7.57;;
3771;SDS011;1901;48.172;12.824;2022-08-19T09:50:22;9.67;;;8.00;;
3771;SDS011;1901;48.172;12.824;2022-08-19T09:52:51;8.93;;;8.13;;
3771;SDS011;1901;48.172;12.824;2022-08-19T09:55:19;9.13;;;8.33;;
3771;SDS011;1901;48.172;12.824;2022-08-19T09:57:46;9.77;;;8.73;;
3771;SDS011;1901;48.172;12.824;2022-08-19T10:00:13;11.50;;;8.17;;
3771;SDS011;1901;48.172;12.824;2022-08-19T10:02:40;8.87;;;7.97;;
3771;SDS011;1901;48.172;12.824;2022-08-19T10:05:08;8.40;;;7.60;;
3771;SDS011;1901;48.172;12.824;2022-08-19T10:08:08;7.63;;;6.93;;
3771;SDS011;1901;48.172;12.824;2022-08-19T10:10:37;7.63;;;6.80;;
3771;SDS011;1901;48.172;12.824;2022-08-19T10:13:04;10.97;;;9.63;;
3771;SDS011;1901;48.172;12.824;2022-08-19T10:15:31;7.67;;;7.07;;
3771;SDS011;1901;48.172;12.824;2022-08-19T10:17:59;9.10;;;8.30;;
3771;SDS011;1901;48.172;12.824;2022-08-19T10:20:26;9.50;;;8.70;;
3771;SDS011;1901;48.172;12.824;2022-08-19T10:22:54;10.60;;;9.70;;
3771;SDS011;1901;48.172;12.824;2022-08-19T10:25:23;9.53;;;8.73;;
3771;SDS011;1901;48.172;12.824;2022-08-19T10:27:51;9.80;;;8.13;;
3771;SDS011;1901;48.172;12.824;2022-08-19T10:30:18;9.40;;;8.50;;
3771;SDS011;1901;48.172;12.824;2022-08-19T10:32:46;8.97;;;8.07;;
3771;SDS011;1901;48.172;12.824;2022-08-19T10:35:13;14.40;;;13.03;;
3771;SDS011;1901;48.172;12.824;2022-08-19T10:37:42;8.63;;;7.83;;
3771;SDS011;1901;48.172;12.824;2022-08-19T10:40:09;10.70;;;9.70;;
3771;SDS011;1901;48.172;12.824;2022-08-19T10:42:38;9.87;;;8.97;;
3771;SDS011;1901;48.172;12.824;2022-08-19T10:45:05;11.70;;;10.23;;
3771;SDS011;1901;48.172;12.824;2022-08-19T10:47:35;10.67;;;9.77;;
3771;SDS011;1901;48.172;12.824;2022-08-19T10:50:02;10.43;;;9.23;;
3771;SDS011;1901;48.172;12.824;2022-08-19T10:52:48;9.97;;;9.17;;
3771;SDS011;1901;48.172;12.824;2022-08-19T10:55:17;9.73;;;8.93;;
3771;SDS011;1901;48.172;12.824;2022-08-19T10:58:03;10.30;;;9.40;;
3771;SDS011;1901;48.172;12.824;2022-08-19T11:00:30;10.27;;;9.37;;
3771;SDS011;1901;48.172;12.824;2022-08-19T11:02:57;11.10;;;8.90;;
3771;SDS011;1901;48.172;12.824;2022-08-19T11:05:25;11.57;;;10.47;;
3771;SDS011;1901;48.172;12.824;2022-08-19T11:07:52;10.30;;;9.40;;
3771;SDS011;1901;48.172;12.824;2022-08-19T11:10:19;10.90;;;9.80;;
3771;SDS011;1901;48.172;12.824;2022-08-19T11:12:46;9.37;;;8.47;;
3771;SDS011;1901;48.172;12.824;2022-08-19T11:15:15;8.93;;;8.13;;
3771;SDS011;1901;48.172;12.824;2022-08-19T11:17:42;8.30;;;7.57;;
3771;SDS011;1901;48.172;12.824;2022-08-19T11:20:10;9.33;;;8.53;;
3771;SDS011;1901;48.172;12.824;2022-08-19T11:22:37;11.53;;;9.40;;
3771;SDS011;1901;48.172;12.824;2022-08-19T11:25:05;9.17;;;8.23;;
3771;SDS011;1901;48.172;12.824;2022-08-19T11:27:32;8.60;;;7.90;;
3771;SDS011;1901;48.172;12.824;2022-08-19T11:29:59;9.10;;;8.20;;
3771;SDS011;1901;48.172;12.824;2022-08-19T11:32:29;9.80;;;8.80;;
3771;SDS011;1901;48.172;12.824;2022-08-19T11:34:57;8.00;;;7.20;;
3771;SDS011;1901;48.172;12.824;2022-08-19T11:37:24;8.37;;;7.67;;
3771;SDS011;1901;48.172;12.824;2022-08-19T11:39:52;8.47;;;7.67;;
3771;SDS011;1901;48.172;12.824;2022-08-19T11:42:19;8.23;;;7.37;;
3771;SDS011;1901;48.172;12.824;2022-08-19T11:45:04;10.23;;;8.73;;
3771;SDS011;1901;48.172;12.824;2022-08-19T11:47:33;9.40;;;8.60;;
3771;SDS011;1901;48.172;12.824;2022-08-19T11:50:00;9.07;;;8.27;;
3771;SDS011;1901;48.172;12.824;2022-08-19T11:52:27;7.80;;;7.10;;
3771;SDS011;1901;48.172;12.824;2022-08-19T11:54:54;7.53;;;6.83;;
3771;SDS011;1901;48.172;12.824;2022-08-19T11:57:21;9.03;;;8.13;;
3771;SDS011;1901;48.172;12.824;2022-08-19T11:59:49;9.20;;;8.37;;
3771;SDS011;1901;48.172;12.824;2022-08-19T12:02:16;9.70;;;8.80;;
3771;SDS011;1901;48.172;12.824;2022-08-19T12:04:45;8.80;;;8.00;;
3771;SDS011;1901;48.172;12.824;2022-08-19T12:07:12;8.57;;;7.87;;
3771;SDS011;1901;48.172;12.824;2022-08-19T12:09:39;8.10;;;7.40;;
3771;SDS011;1901;48.172;12.824;2022-08-19T12:12:08;10.47;;;9.47;;
3771;SDS011;1901;48.172;12.824;2022-08-19T12:14:35;8.73;;;7.83;;
3771;SDS011;1901;48.172;12.824;2022-08-19T12:17:02;9.37;;;8.47;;
3771;SDS011;1901;48.172;12.824;2022-08-19T12:19:32;9.60;;;8.70;;
3771;SDS011;1901;48.172;12.824;2022-08-19T12:22:01;10.20;;;9.30;;
3771;SDS011;1901;48.172;12.824;2022-08-19T12:24:31;7.90;;;7.20;;
3771;SDS011;1901;48.172;12.824;2022-08-19T12:26:58;8.37;;;6.90;;
3771;SDS011;1901;48.172;12.824;2022-08-19T12:29:27;7.77;;;7.10;;
3771;SDS011;1901;48.172;12.824;2022-08-19T12:31:54;9.00;;;8.10;;
3771;SDS011;1901;48.172;12.824;2022-08-19T12:34:25;7.87;;;7.07;;
3771;SDS011;1901;48.172;12.824;2022-08-19T12:36:54;8.87;;;8.07;;
3771;SDS011;1901;48.172;12.824;2022-08-19T12:39:23;7.47;;;6.77;;
3771;SDS011;1901;48.172;12.824;2022-08-19T12:41:50;10.80;;;7.73;;
3771;SDS011;1901;48.172;12.824;2022-08-19T12:44:18;8.43;;;7.63;;
3771;SDS011;1901;48.172;12.824;2022-08-19T12:46:46;13.23;;;8.43;;
3771;SDS011;1901;48.172;12.824;2022-08-19T12:49:14;9.13;;;7.00;;
3771;SDS011;1901;48.172;12.824;2022-08-19T12:51:42;7.07;;;6.53;;
3771;SDS011;1901;48.172;12.824;2022-08-19T12:54:09;7.43;;;6.73;;
3771;SDS011;1901;48.172;12.824;2022-08-19T12:56:38;6.40;;;5.90;;
3771;SDS011;1901;48.172;12.824;2022-08-19T12:59:06;6.10;;;5.50;;
3771;SDS011;1901;48.172;12.824;2022-08-19T13:01:33;6.77;;;6.20;;
3771;SDS011;1901;48.172;12.824;2022-08-19T13:04:01;7.53;;;6.40;;
3771;SDS011;1901;48.172;12.824;2022-08-19T13:06:28;8.20;;;7.50;;
3771;SDS011;1901;48.172;12.824;2022-08-19T13:08:55;6.33;;;5.73;;
3771;SDS011;1901;48.172;12.824;2022-08-19T13:11:23;6.40;;;5.80;;
3771;SDS011;1901;48.172;12.824;2022-08-19T13:13:51;7.83;;;7.03;;
3771;SDS011;1901;48.172;12.824;2022-08-19T13:16:20;6.10;;;5.50;;
3771;SDS011;1901;48.172;12.824;2022-08-19T13:18:47;7.73;;;6.93;;
3771;SDS011;1901;48.172;12.824;2022-08-19T13:21:17;6.00;;;5.40;;
3771;SDS011;1901;48.172;12.824;2022-08-19T13:23:45;5.43;;;4.93;;
3771;SDS011;1901;48.172;12.824;2022-08-19T13:26:13;6.00;;;5.50;;
3771;SDS011;1901;48.172;12.824;2022-08-19T13:28:40;6.83;;;6.13;;
3771;SDS011;1901;48.172;12.824;2022-08-19T13:31:28;6.70;;;5.37;;
3771;SDS011;1901;48.172;12.824;2022-08-19T13:34:13;7.40;;;6.70;;
3771;SDS011;1901;48.172;12.824;2022-08-19T13:36:40;5.80;;;5.30;;
3771;SDS011;1901;48.172;12.824;2022-08-19T13:39:08;6.63;;;6.03;;
3771;SDS011;1901;48.172;12.824;2022-08-19T13:41:35;10.13;;;5.80;;
3771;SDS011;1901;48.172;12.824;2022-08-19T13:44:03;6.73;;;6.13;;
3771;SDS011;1901;48.172;12.824;2022-08-19T13:46:32;6.83;;;6.23;;
3771;SDS011;1901;48.172;12.824;2022-08-19T13:48:59;6.50;;;6.00;;
3771;SDS011;1901;48.172;12.824;2022-08-19T13:51:26;8.40;;;6.57;;
3771;SDS011;1901;48.172;12.824;2022-08-19T13:53:54;10.03;;;6.33;;
3771;SDS011;1901;48.172;12.824;2022-08-19T13:56:21;6.93;;;6.33;;
3771;SDS011;1901;48.172;12.824;2022-08-19T13:58:48;6.43;;;5.93;;
3771;SDS011;1901;48.172;12.824;2022-08-19T14:01:18;6.23;;;5.73;;
3771;SDS011;1901;48.172;12.824;2022-08-19T14:03:47;6.47;;;4.97;;
3771;SDS011;1901;48.172;12.824;2022-08-19T14:06:15;11.20;;;6.73;;
3771;SDS011;1901;48.172;12.824;2022-08-19T14:08:43;7.70;;;7.10;;
3771;SDS011;1901;48.172;12.824;2022-08-19T14:11:10;7.20;;;5.80;;
3771;SDS011;1901;48.172;12.824;2022-08-19T14:13:37;5.80;;;5.30;;
3771;SDS011;1901;48.172;12.824;2022-08-19T14:16:08;5.30;;;4.90;;
3771;SDS011;1901;48.172;12.824;2022-08-19T14:18:35;5.80;;;5.20;;
3771;SDS011;1901;48.172;12.824;2022-08-19T14:21:05;6.13;;;5.47;;
3771;SDS011;1901;48.172;12.824;2022-08-19T14:23:32;6.10;;;5.53;;
3771;SDS011;1901;48.172;12.824;2022-08-19T14:26:04;5.17;;;4.60;;
3771;SDS011;1901;48.172;12.824;2022-08-19T14:28:32;5.77;;;5.27;;
3771;SDS011;1901;48.172;12.824;2022-08-19T14:30:59;5.87;;;5.37;;
3771;SDS011;1901;48.172;12.824;2022-08-19T14:33:26;5.63;;;4.97;;
3771;SDS011;1901;48.172;12.824;2022-08-19T14:35:53;5.13;;;4.73;;
3771;SDS011;1901;48.172;12.824;2022-08-19T14:38:22;6.13;;;5.27;;
3771;SDS011;1901;48.172;12.824;2022-08-19T14:40:49;7.63;;;6.87;;
3771;SDS011;1901;48.172;12.824;2022-08-19T14:43:17;5.80;;;5.20;;
3771;SDS011;1901;48.172;12.824;2022-08-19T14:45:44;5.70;;;5.20;;
3771;SDS011;1901;48.172;12.824;2022-08-19T14:48:11;5.37;;;4.87;;
3771;SDS011;1901;48.172;12.824;2022-08-19T14:50:39;5.40;;;5.00;;
3771;SDS011;1901;48.172;12.824;2022-08-19T14:53:07;7.07;;;4.57;;
3771;SDS011;1901;48.172;12.824;2022-08-19T14:55:36;5.60;;;5.10;;
3771;SDS011;1901;48.172;12.824;2022-08-19T14:58:03;5.43;;;4.50;;
3771;SDS011;1901;48.172;12.824;2022-08-19T15:00:30;7.60;;;4.63;;
3771;SDS011;1901;48.172;12.824;2022-08-19T15:02:57;6.33;;;5.77;;